createdAt,value
2017-09-01T00:00:10.871Z,0
2017-09-01T00:01:11.484Z,0
2017-09-01T00:02:12.102Z,0
2017-09-01T00:03:12.749Z,0
2017-09-01T00:04:13.358Z,0
2017-09-01T00:05:13.971Z,0
2017-09-01T00:06:14.582Z,0
2017-09-01T00:07:15.294Z,0
2017-09-01T00:08:15.913Z,0
2017-09-01T00:09:16.520Z,0
2017-09-01T00:10:17.139Z,0
2017-09-01T00:11:17.788Z,0
2017-09-01T00:12:18.496Z,0
2017-09-01T00:13:19.110Z,0
2017-09-01T00:14:19.721Z,0
2017-09-01T00:15:20.335Z,0
2017-09-01T00:16:20.946Z,0
2017-09-01T00:17:21.659Z,0
2017-09-01T00:18:22.272Z,0
2017-09-01T00:19:22.887Z,0
2017-09-01T00:20:23.499Z,0
2017-09-01T00:21:24.108Z,0
2017-09-01T00:22:24.820Z,0
2017-09-01T00:23:25.438Z,0
2017-09-01T00:24:26.049Z,0
2017-09-01T00:25:26.694Z,0
2017-09-01T00:26:27.307Z,0
2017-09-01T00:27:28.023Z,0
2017-09-01T00:28:28.633Z,0
2017-09-01T00:29:29.245Z,0
2017-09-01T00:30:29.889Z,0
2017-09-01T00:31:30.499Z,0
2017-09-01T00:32:31.218Z,0
2017-09-01T00:33:31.827Z,0
2017-09-01T00:34:32.439Z,0
2017-09-01T00:35:33.056Z,0
2017-09-01T00:36:33.664Z,0
2017-09-01T00:37:34.376Z,0
2017-09-01T00:38:34.988Z,0
2017-09-01T00:39:35.605Z,0
2017-09-01T00:40:36.255Z,0
2017-09-01T00:41:36.828Z,0
2017-09-01T00:42:37.440Z,0
2017-09-01T00:43:38.052Z,0
2017-09-01T00:44:38.671Z,0
2017-09-01T00:45:39.379Z,0
2017-09-01T00:46:39.997Z,0
2017-09-01T00:47:40.608Z,0
2017-09-01T00:48:41.259Z,0
2017-09-01T00:49:41.867Z,0
2017-09-01T00:50:42.480Z,0
2017-09-01T00:51:43.189Z,0
2017-09-01T00:52:43.800Z,0
2017-09-01T00:53:44.410Z,0
2017-09-01T00:54:45.027Z,0
2017-09-01T00:55:45.645Z,0
2017-09-01T00:56:46.387Z,0
2017-09-01T00:57:47.000Z,0
2017-09-01T00:58:47.617Z,0
2017-09-01T00:59:48.231Z,0
2017-09-01T01:00:48.844Z,0
2017-09-01T01:01:49.560Z,0
2017-09-01T01:02:50.175Z,0
2017-09-01T01:03:50.789Z,0
2017-09-01T01:04:51.402Z,0
2017-09-01T01:05:52.012Z,0
2017-09-01T01:06:52.729Z,0
2017-09-01T01:07:53.338Z,0
2017-09-01T01:08:53.949Z,0
2017-09-01T01:09:54.561Z,0
2017-09-01T01:10:55.174Z,0
2017-09-01T01:11:55.786Z,0
2017-09-01T01:12:56.397Z,0
2017-09-01T01:13:57.009Z,0
2017-09-01T01:14:57.628Z,0
2017-09-01T01:15:58.335Z,0
2017-09-01T01:16:58.951Z,0
2017-09-01T01:17:59.562Z,0
2017-09-01T01:19:00.172Z,0
2017-09-01T01:20:00.785Z,0
2017-09-01T01:21:01.497Z,0
2017-09-01T01:22:02.110Z,0
2017-09-01T01:23:02.723Z,0
2017-09-01T01:24:03.333Z,0
2017-09-01T01:25:03.950Z,0
2017-09-01T01:26:04.665Z,0
2017-09-01T01:27:05.282Z,0
2017-09-01T01:28:05.891Z,0
2017-09-01T01:29:06.504Z,0
2017-09-01T01:30:07.115Z,0
2017-09-01T01:31:07.826Z,0
2017-09-01T01:32:08.440Z,0
2017-09-01T01:33:09.050Z,0
2017-09-01T01:34:09.663Z,0
2017-09-01T01:35:10.280Z,0
2017-09-01T01:36:10.997Z,0
2017-09-01T01:37:11.609Z,0
2017-09-01T01:38:12.218Z,0
2017-09-01T01:39:12.836Z,0
2017-09-01T01:40:13.444Z,0
2017-09-01T01:41:14.156Z,0
2017-09-01T01:42:14.767Z,0
2017-09-01T01:43:15.384Z,0
2017-09-01T01:44:15.993Z,0
2017-09-01T01:45:16.609Z,0
2017-09-01T01:46:17.318Z,0
2017-09-01T01:47:17.931Z,0
2017-09-01T01:48:18.543Z,0
2017-09-01T01:49:19.155Z,0
2017-09-01T01:50:19.799Z,0
2017-09-01T01:51:20.509Z,0
2017-09-01T01:52:21.121Z,0
2017-09-01T01:53:21.738Z,0
2017-09-01T01:54:22.353Z,0
2017-09-01T01:55:22.969Z,0
2017-09-01T01:56:23.676Z,0
2017-09-01T01:57:24.321Z,0
2017-09-01T01:58:24.936Z,0
2017-09-01T01:59:25.545Z,0
2017-09-01T02:00:26.158Z,0
2017-09-01T02:01:26.922Z,0
2017-09-01T02:02:27.532Z,0
2017-09-01T02:03:28.142Z,0
2017-09-01T02:04:28.758Z,0
2017-09-01T02:05:29.377Z,0
2017-09-01T02:06:30.089Z,0
2017-09-01T02:07:30.697Z,0
2017-09-01T02:08:31.311Z,0
2017-09-01T02:09:31.926Z,0
2017-09-01T02:10:32.541Z,0
2017-09-01T02:11:33.149Z,0
2017-09-01T02:12:33.873Z,0
2017-09-01T02:13:34.484Z,0
2017-09-01T02:14:35.094Z,0
2017-09-01T02:15:35.712Z,0
2017-09-01T02:16:36.319Z,0
2017-09-01T02:17:36.937Z,0
2017-09-01T02:18:37.679Z,0
2017-09-01T02:19:38.325Z,0
2017-09-01T02:20:38.942Z,0
2017-09-01T02:21:39.550Z,0
2017-09-01T02:22:40.162Z,0
2017-09-01T02:23:40.874Z,0
2017-09-01T02:24:41.485Z,0
2017-09-01T02:25:42.104Z,0
2017-09-01T02:26:42.717Z,0
2017-09-01T02:27:43.358Z,0
2017-09-01T02:28:44.071Z,0
2017-09-01T02:29:44.683Z,0
2017-09-01T02:30:45.295Z,0
2017-09-01T02:31:45.907Z,0
2017-09-01T02:32:46.524Z,0
2017-09-01T02:33:47.169Z,0
2017-09-01T02:34:47.788Z,0
2017-09-01T02:35:48.403Z,0
2017-09-01T02:36:49.111Z,0
2017-09-01T02:37:49.757Z,0
2017-09-01T02:38:50.363Z,0
2017-09-01T02:39:50.974Z,0
2017-09-01T02:40:51.589Z,0
2017-09-01T02:41:52.333Z,0
2017-09-01T02:42:52.944Z,0
2017-09-01T02:43:53.554Z,0
2017-09-01T02:44:54.167Z,0
2017-09-01T02:45:54.785Z,0
2017-09-01T02:46:55.494Z,0
2017-09-01T02:47:56.112Z,0
2017-09-01T02:48:56.725Z,0
2017-09-01T02:49:57.365Z,0
2017-09-01T02:50:57.976Z,0
2017-09-01T02:51:58.690Z,0
2017-09-01T02:52:59.334Z,0
2017-09-01T02:53:59.951Z,0
2017-09-01T02:55:00.562Z,0
2017-09-01T02:56:01.175Z,0
2017-09-01T02:57:01.892Z,0
2017-09-01T02:58:02.502Z,0
2017-09-01T02:59:03.110Z,0
2017-09-01T03:00:03.729Z,0
2017-09-01T03:01:04.338Z,0
2017-09-01T03:02:05.049Z,0
2017-09-01T03:03:05.661Z,0
2017-09-01T03:04:06.277Z,0
2017-09-01T03:05:06.890Z,0
2017-09-01T03:06:07.503Z,0
2017-09-01T03:07:08.218Z,0
2017-09-01T03:08:08.833Z,0
2017-09-01T03:09:09.443Z,0
2017-09-01T03:10:10.056Z,0
2017-09-01T03:11:10.705Z,0
2017-09-01T03:12:11.413Z,0
2017-09-01T03:13:12.025Z,0
2017-09-01T03:14:12.637Z,0
2017-09-01T03:15:13.248Z,0
2017-09-01T03:16:13.858Z,0
2017-09-01T03:17:14.571Z,0
2017-09-01T03:18:15.185Z,0
2017-09-01T03:19:15.796Z,0
2017-09-01T03:20:16.438Z,0
2017-09-01T03:21:17.057Z,0
2017-09-01T03:22:17.671Z,0
2017-09-01T03:23:18.280Z,0
2017-09-01T03:24:18.925Z,0
2017-09-01T03:25:19.641Z,0
2017-09-01T03:26:20.249Z,0
2017-09-01T03:27:20.866Z,0
2017-09-01T03:28:21.475Z,0
2017-09-01T03:29:22.117Z,0
2017-09-01T03:30:22.867Z,0
2017-09-01T03:31:23.512Z,0
2017-09-01T03:32:24.120Z,0
2017-09-01T03:33:24.731Z,0
2017-09-01T03:34:25.374Z,0
2017-09-01T03:35:26.085Z,0
2017-09-01T03:36:26.697Z,0
2017-09-01T03:37:27.309Z,0
2017-09-01T03:38:27.923Z,0
2017-09-01T03:39:28.566Z,0
2017-09-01T03:40:29.183Z,0
2017-09-01T03:41:29.899Z,0
2017-09-01T03:42:30.514Z,0
2017-09-01T03:43:31.129Z,0
2017-09-01T03:44:31.737Z,0
2017-09-01T03:45:32.408Z,0
2017-09-01T03:46:33.095Z,0
2017-09-01T03:47:33.711Z,0
2017-09-01T03:48:34.318Z,0
2017-09-01T03:49:34.955Z,0
2017-09-01T03:50:35.545Z,0
2017-09-01T03:51:36.157Z,0
2017-09-01T03:52:36.867Z,0
2017-09-01T03:53:37.486Z,0
2017-09-01T03:54:38.097Z,0
2017-09-01T03:55:38.710Z,0
2017-09-01T03:56:39.320Z,0
2017-09-01T03:57:40.066Z,0
2017-09-01T03:58:40.677Z,0
2017-09-01T03:59:41.292Z,0
2017-09-01T04:00:41.900Z,0
2017-09-01T04:01:42.512Z,0
2017-09-01T04:02:43.229Z,0
2017-09-01T04:03:43.845Z,0
2017-09-01T04:04:44.455Z,0
2017-09-01T04:05:45.065Z,0
2017-09-01T04:06:45.678Z,0
2017-09-01T04:07:46.392Z,0
2017-09-01T04:08:47.003Z,0
2017-09-01T04:09:47.622Z,0
2017-09-01T04:10:48.228Z,0
2017-09-01T04:11:48.846Z,0
2017-09-01T04:12:49.562Z,0
2017-09-01T04:13:50.174Z,0
2017-09-01T04:14:50.804Z,0
2017-09-01T04:15:51.398Z,0
2017-09-01T04:16:52.043Z,0
2017-09-01T04:17:52.765Z,0
2017-09-01T04:18:53.398Z,0
2017-09-01T04:19:54.011Z,0
2017-09-01T04:20:54.628Z,0
2017-09-01T04:21:55.237Z,0
2017-09-01T04:22:55.998Z,0
2017-09-01T04:23:56.615Z,0
2017-09-01T04:24:57.226Z,0
2017-09-01T04:25:57.840Z,0
2017-09-01T04:26:58.445Z,0
2017-09-01T04:27:59.211Z,0
2017-09-01T04:28:59.826Z,0
2017-09-01T04:30:00.434Z,0
2017-09-01T04:31:01.049Z,0
2017-09-01T04:32:01.655Z,0
2017-09-01T04:33:02.418Z,0
2017-09-01T04:34:03.031Z,0
2017-09-01T04:35:03.641Z,0
2017-09-01T04:36:04.252Z,0
2017-09-01T04:37:04.863Z,0
2017-09-01T04:38:05.624Z,0
2017-09-01T04:39:06.235Z,0
2017-09-01T04:40:06.846Z,0
2017-09-01T04:41:07.458Z,0
2017-09-01T04:42:08.074Z,0
2017-09-01T04:43:08.829Z,0
2017-09-01T04:44:09.443Z,0
2017-09-01T04:45:10.060Z,0
2017-09-01T04:46:10.667Z,0
2017-09-01T04:47:11.278Z,0
2017-09-01T04:48:12.042Z,0
2017-09-01T04:49:12.659Z,0
2017-09-01T04:50:13.304Z,0
2017-09-01T04:51:13.913Z,0
2017-09-01T04:52:14.529Z,0
2017-09-01T04:53:15.290Z,0
2017-09-01T04:54:15.900Z,0
2017-09-01T04:55:16.515Z,0
2017-09-01T04:56:17.155Z,0
2017-09-01T04:57:17.766Z,0
2017-09-01T04:58:18.384Z,0
2017-09-01T04:59:18.997Z,0
2017-09-01T05:00:19.856Z,0
2017-09-01T05:01:20.476Z,0
2017-09-01T05:02:21.090Z,0
2017-09-01T05:03:21.701Z,0
2017-09-01T05:04:22.311Z,0
2017-09-01T05:05:23.073Z,0
2017-09-01T05:06:23.694Z,0
2017-09-01T05:07:24.302Z,0
2017-09-01T05:08:24.913Z,0
2017-09-01T05:09:25.530Z,0
2017-09-01T05:10:26.323Z,0
2017-09-01T05:11:26.937Z,0
2017-09-01T05:12:27.549Z,0
2017-09-01T05:13:28.161Z,0
2017-09-01T05:14:28.771Z,0
2017-09-01T05:15:29.531Z,0
2017-09-01T05:16:30.144Z,0
2017-09-01T05:17:30.757Z,0
2017-09-01T05:18:31.367Z,0
2017-09-01T05:19:31.977Z,0
2017-09-01T05:20:32.595Z,0
2017-09-01T05:21:33.207Z,0
2017-09-01T05:22:33.820Z,0
2017-09-01T05:23:34.437Z,0
2017-09-01T05:24:35.306Z,0
2017-09-01T05:25:35.913Z,0
2017-09-01T05:26:36.559Z,0
2017-09-01T05:27:37.200Z,0
2017-09-01T05:28:37.813Z,0
2017-09-01T05:29:38.575Z,0
2017-09-01T05:30:39.189Z,0
2017-09-01T05:31:39.806Z,0
2017-09-01T05:32:40.424Z,0
2017-09-01T05:33:41.034Z,0
2017-09-01T05:34:41.646Z,0
2017-09-01T05:35:42.259Z,0
2017-09-01T05:36:43.024Z,0
2017-09-01T05:37:43.640Z,0
2017-09-01T05:38:44.251Z,0
2017-09-01T05:39:44.864Z,0
2017-09-01T05:40:45.476Z,0
2017-09-01T05:41:46.239Z,0
2017-09-01T05:42:46.859Z,0
2017-09-01T05:43:47.468Z,0
2017-09-01T05:44:48.081Z,0
2017-09-01T05:45:48.701Z,0
2017-09-01T05:46:49.466Z,0
2017-09-01T05:47:50.077Z,0
2017-09-01T05:48:50.688Z,0
2017-09-01T05:49:51.300Z,0
2017-09-01T05:50:51.912Z,0
2017-09-01T05:51:52.732Z,0
2017-09-01T05:52:53.342Z,0
2017-09-01T05:53:53.957Z,0
2017-09-01T05:54:54.570Z,0
2017-09-01T05:55:55.189Z,0
2017-09-01T05:56:56.005Z,0
2017-09-01T05:57:56.616Z,0
2017-09-01T05:58:57.234Z,0
2017-09-01T05:59:57.841Z,0
2017-09-01T06:00:58.453Z,0
2017-09-01T06:01:59.217Z,5
2017-09-01T06:02:59.829Z,5
2017-09-01T06:04:00.440Z,5
2017-09-01T06:05:01.052Z,5
2017-09-01T06:06:01.670Z,5
2017-09-01T06:07:02.282Z,5
2017-09-01T06:08:02.931Z,5
2017-09-01T06:09:03.543Z,5
2017-09-01T06:10:04.161Z,5
2017-09-01T06:11:04.777Z,5
2017-09-01T06:12:05.536Z,5
2017-09-01T06:13:06.152Z,5
2017-09-01T06:14:06.768Z,5
2017-09-01T06:15:07.378Z,5
2017-09-01T06:16:07.989Z,5
2017-09-01T06:17:08.769Z,5
2017-09-01T06:18:09.368Z,5
2017-09-01T06:19:10.012Z,5
2017-09-01T06:20:10.624Z,5
2017-09-01T06:21:11.235Z,5
2017-09-01T06:22:12.086Z,5
2017-09-01T06:23:12.696Z,5
2017-09-01T06:24:13.315Z,5
2017-09-01T06:25:13.964Z,5
2017-09-01T06:26:14.578Z,5
2017-09-01T06:27:15.401Z,5
2017-09-01T06:28:16.003Z,5
2017-09-01T06:29:16.618Z,5
2017-09-01T06:30:17.231Z,5
2017-09-01T06:31:17.849Z,5
2017-09-01T06:32:18.459Z,5
2017-09-01T06:33:19.079Z,5
2017-09-01T06:34:19.689Z,5
2017-09-01T06:35:20.303Z,5
2017-09-01T06:36:20.919Z,5
2017-09-01T06:37:21.771Z,5
2017-09-01T06:38:22.383Z,5
2017-09-01T06:39:22.998Z,10
2017-09-01T06:40:23.612Z,10
2017-09-01T06:41:24.228Z,10
2017-09-01T06:42:24.994Z,10
2017-09-01T06:43:25.607Z,10
2017-09-01T06:44:26.226Z,10
2017-09-01T06:45:26.878Z,10
2017-09-01T06:46:27.529Z,10
2017-09-01T06:47:28.292Z,10
2017-09-01T06:48:28.907Z,10
2017-09-01T06:49:29.522Z,10
2017-09-01T06:50:30.136Z,10
2017-09-01T06:51:30.754Z,10
2017-09-01T06:52:31.524Z,10
2017-09-01T06:53:32.135Z,10
2017-09-01T06:54:32.757Z,10
2017-09-01T06:55:33.369Z,10
2017-09-01T06:56:33.984Z,10
2017-09-01T06:57:34.753Z,10
2017-09-01T06:58:35.372Z,10
2017-09-01T06:59:35.983Z,10
2017-09-01T07:00:36.601Z,10
2017-09-01T07:01:37.216Z,10
2017-09-01T07:02:37.981Z,10
2017-09-01T07:03:38.603Z,10
2017-09-01T07:04:39.220Z,10
2017-09-01T07:05:39.833Z,10
2017-09-01T07:06:40.451Z,10
2017-09-01T07:07:41.269Z,10
2017-09-01T07:08:41.887Z,10
2017-09-01T07:09:42.512Z,10
2017-09-01T07:10:43.122Z,10
2017-09-01T07:11:43.742Z,10
2017-09-01T07:12:44.506Z,10
2017-09-01T07:13:45.123Z,10
2017-09-01T07:14:45.743Z,10
2017-09-01T07:15:46.359Z,10
2017-09-01T07:16:46.979Z,10
2017-09-01T07:17:47.777Z,10
2017-09-01T07:18:48.395Z,10
2017-09-01T07:19:49.010Z,10
2017-09-01T07:20:49.659Z,10
2017-09-01T07:21:50.275Z,10
2017-09-01T07:22:50.890Z,10
2017-09-01T07:23:51.506Z,10
2017-09-01T07:24:52.324Z,10
2017-09-01T07:25:52.942Z,10
2017-09-01T07:26:53.559Z,10
2017-09-01T07:27:54.181Z,10
2017-09-01T07:28:54.801Z,10
2017-09-01T07:29:55.563Z,10
2017-09-01T07:30:56.180Z,10
2017-09-01T07:31:56.828Z,10
2017-09-01T07:32:57.442Z,10
2017-09-01T07:33:58.057Z,10
2017-09-01T07:34:58.824Z,10
2017-09-01T07:35:59.438Z,10
2017-09-01T07:37:00.063Z,10
2017-09-01T07:38:00.673Z,10
2017-09-01T07:39:01.294Z,10
2017-09-01T07:40:02.056Z,10
2017-09-01T07:41:02.706Z,10
2017-09-01T07:42:03.331Z,10
2017-09-01T07:43:03.937Z,10
2017-09-01T07:44:04.550Z,10
2017-09-01T07:45:05.348Z,10
2017-09-01T07:46:05.969Z,10
2017-09-01T07:47:06.582Z,10
2017-09-01T07:48:07.202Z,10
2017-09-01T07:49:07.850Z,10
2017-09-01T07:50:08.616Z,10
2017-09-01T07:51:09.236Z,15
2017-09-01T07:52:09.890Z,15
2017-09-01T07:53:10.503Z,15
2017-09-01T07:54:11.117Z,15
2017-09-01T07:55:11.732Z,15
2017-09-01T07:56:12.352Z,15
2017-09-01T07:57:12.969Z,20
2017-09-01T07:58:13.732Z,20
2017-09-01T07:59:14.352Z,20
2017-09-01T08:00:14.971Z,20
2017-09-01T08:01:15.583Z,20
2017-09-01T08:02:16.200Z,20
2017-09-01T08:03:16.971Z,20
2017-09-01T08:04:17.584Z,20
2017-09-01T08:05:18.198Z,20
2017-09-01T08:06:18.820Z,20
2017-09-01T08:07:19.467Z,20
2017-09-01T08:08:20.272Z,20
2017-09-01T08:09:20.885Z,20
2017-09-01T08:10:21.507Z,20
2017-09-01T08:11:22.123Z,20
2017-09-01T08:12:22.739Z,20
2017-09-01T08:13:23.536Z,20
2017-09-01T08:14:24.156Z,20
2017-09-01T08:15:24.770Z,20
2017-09-01T08:16:25.388Z,20
2017-09-01T08:17:26.004Z,20
2017-09-01T08:18:26.769Z,15
2017-09-01T08:19:27.387Z,15
2017-09-01T08:20:28.003Z,15
2017-09-01T08:21:28.619Z,15
2017-09-01T08:22:29.237Z,15
2017-09-01T08:23:29.891Z,15
2017-09-01T08:24:30.692Z,15
2017-09-01T08:25:31.312Z,15
2017-09-01T08:26:31.933Z,15
2017-09-01T08:27:32.579Z,15
2017-09-01T08:28:33.202Z,15
2017-09-01T08:29:33.964Z,15
2017-09-01T08:30:34.614Z,15
2017-09-01T08:31:35.232Z,15
2017-09-01T08:32:35.847Z,15
2017-09-01T08:33:36.463Z,20
2017-09-01T08:34:37.081Z,20
2017-09-01T08:35:37.697Z,20
2017-09-01T08:36:38.463Z,20
2017-09-01T08:37:39.080Z,20
2017-09-01T08:38:39.704Z,20
2017-09-01T08:39:40.322Z,20
2017-09-01T08:40:40.943Z,20
2017-09-01T08:41:41.705Z,20
2017-09-01T08:42:42.330Z,20
2017-09-01T08:43:42.943Z,20
2017-09-01T08:44:43.561Z,20
2017-09-01T08:45:44.177Z,20
2017-09-01T08:46:44.949Z,20
2017-09-01T08:47:45.563Z,15
2017-09-01T08:48:46.179Z,15
2017-09-01T08:49:46.802Z,20
2017-09-01T08:50:47.415Z,20
2017-09-01T08:51:48.222Z,15
2017-09-01T08:52:48.835Z,15
2017-09-01T08:53:49.449Z,15
2017-09-01T08:54:50.066Z,15
2017-09-01T08:55:50.682Z,15
2017-09-01T08:56:51.449Z,15
2017-09-01T08:57:52.067Z,15
2017-09-01T08:58:52.683Z,15
2017-09-01T08:59:53.302Z,15
2017-09-01T09:00:53.916Z,15
2017-09-01T09:01:54.684Z,15
2017-09-01T09:02:55.310Z,10
2017-09-01T09:03:55.953Z,10
2017-09-01T09:04:56.601Z,10
2017-09-01T09:05:57.224Z,10
2017-09-01T09:06:57.987Z,10
2017-09-01T09:07:58.604Z,10
2017-09-01T09:08:59.224Z,10
2017-09-01T09:09:59.837Z,10
2017-09-01T09:11:00.455Z,10
2017-09-01T09:12:01.221Z,10
2017-09-01T09:13:01.840Z,10
2017-09-01T09:14:02.457Z,10
2017-09-01T09:15:03.079Z,10
2017-09-01T09:16:03.692Z,10
2017-09-01T09:17:04.462Z,10
2017-09-01T09:18:05.076Z,10
2017-09-01T09:19:05.710Z,10
2017-09-01T09:20:06.312Z,10
2017-09-01T09:21:06.931Z,10
2017-09-01T09:22:07.702Z,10
2017-09-01T09:23:08.323Z,10
2017-09-01T09:24:08.935Z,10
2017-09-01T09:25:09.551Z,10
2017-09-01T09:26:10.174Z,10
2017-09-01T09:27:10.939Z,10
2017-09-01T09:28:11.557Z,15
2017-09-01T09:29:12.207Z,15
2017-09-01T09:30:12.828Z,15
2017-09-01T09:31:13.475Z,20
2017-09-01T09:32:14.242Z,20
2017-09-01T09:33:14.860Z,20
2017-09-01T09:34:15.477Z,20
2017-09-01T09:35:16.093Z,25
2017-09-01T09:36:16.709Z,25
2017-09-01T09:37:17.477Z,25
2017-09-01T09:38:18.093Z,30
2017-09-01T09:39:18.711Z,30
2017-09-01T09:40:19.332Z,30
2017-09-01T09:41:19.952Z,30
2017-09-01T09:42:20.719Z,30
2017-09-01T09:43:21.367Z,30
2017-09-01T09:44:21.984Z,30
2017-09-01T09:45:22.603Z,30
2017-09-01T09:46:23.218Z,30
2017-09-01T09:47:23.985Z,30
2017-09-01T09:48:24.602Z,30
2017-09-01T09:49:25.221Z,30
2017-09-01T09:50:25.838Z,30
2017-09-01T09:51:26.462Z,35
2017-09-01T09:52:27.230Z,40
2017-09-01T09:53:27.850Z,40
2017-09-01T09:54:28.464Z,40
2017-09-01T09:55:29.082Z,40
2017-09-01T09:56:29.700Z,35
2017-09-01T09:57:30.317Z,35
2017-09-01T09:58:31.091Z,35
2017-09-01T09:59:31.710Z,40
2017-09-01T10:00:32.326Z,45
2017-09-01T10:01:32.946Z,50
2017-09-01T10:02:33.568Z,40
2017-09-01T10:03:34.182Z,40
2017-09-01T10:04:34.950Z,50
2017-09-01T10:05:35.568Z,40
2017-09-01T10:06:36.221Z,40
2017-09-01T10:07:36.841Z,50
2017-09-01T10:08:37.460Z,35
2017-09-01T10:09:38.260Z,55
2017-09-01T10:10:38.877Z,60
2017-09-01T10:11:39.493Z,45
2017-09-01T10:12:40.113Z,60
2017-09-01T10:13:40.729Z,45
2017-09-01T10:14:41.500Z,70
2017-09-01T10:15:42.119Z,65
2017-09-01T10:16:42.738Z,65
2017-09-01T10:17:43.357Z,65
2017-09-01T10:18:43.974Z,40
2017-09-01T10:19:44.743Z,55
2017-09-01T10:20:45.393Z,45
2017-09-01T10:21:46.017Z,55
2017-09-01T10:22:46.640Z,50
2017-09-01T10:23:47.256Z,55
2017-09-01T10:24:48.022Z,50
2017-09-01T10:25:48.640Z,30
2017-09-01T10:26:49.263Z,30
2017-09-01T10:27:49.878Z,25
2017-09-01T10:28:50.497Z,20
2017-09-01T10:29:51.266Z,20
2017-09-01T10:30:51.886Z,20
2017-09-01T10:31:52.504Z,20
2017-09-01T10:32:53.171Z,20
2017-09-01T10:33:53.778Z,20
2017-09-01T10:34:54.543Z,15
2017-09-01T10:35:55.161Z,15
2017-09-01T10:36:55.778Z,15
2017-09-01T10:37:56.397Z,10
2017-09-01T10:38:57.016Z,10
2017-09-01T10:39:57.640Z,10
2017-09-01T10:40:58.287Z,10
2017-09-01T10:41:58.904Z,10
2017-09-01T10:42:59.527Z,10
2017-09-01T10:44:00.299Z,10
2017-09-01T10:45:00.926Z,10
2017-09-01T10:46:01.535Z,10
2017-09-01T10:47:02.153Z,10
2017-09-01T10:48:02.777Z,10
2017-09-01T10:49:03.400Z,10
2017-09-01T10:50:04.163Z,10
2017-09-01T10:51:04.779Z,10
2017-09-01T10:52:05.396Z,10
2017-09-01T10:53:06.014Z,10
2017-09-01T10:54:06.635Z,10
2017-09-01T10:55:07.256Z,10
2017-09-01T10:56:08.023Z,10
2017-09-01T10:57:08.644Z,10
2017-09-01T10:58:09.259Z,10
2017-09-01T10:59:09.877Z,10
2017-09-01T11:00:10.502Z,10
2017-09-01T11:01:11.264Z,10
2017-09-01T11:02:11.881Z,10
2017-09-01T11:03:12.499Z,10
2017-09-01T11:04:13.117Z,10
2017-09-01T11:05:13.739Z,10
2017-09-01T11:06:14.504Z,10
2017-09-01T11:07:15.120Z,10
2017-09-01T11:08:15.739Z,10
2017-09-01T11:09:16.357Z,10
2017-09-01T11:10:17.011Z,10
2017-09-01T11:11:17.814Z,10
2017-09-01T11:12:18.439Z,10
2017-09-01T11:13:19.048Z,10
2017-09-01T11:14:19.671Z,10
2017-09-01T11:15:20.288Z,10
2017-09-01T11:16:21.084Z,10
2017-09-01T11:17:21.701Z,10
2017-09-01T11:18:22.322Z,10
2017-09-01T11:19:22.970Z,10
2017-09-01T11:20:23.586Z,10
2017-09-01T11:21:24.359Z,10
2017-09-01T11:22:24.974Z,10
2017-09-01T11:23:25.591Z,10
2017-09-01T11:24:26.208Z,10
2017-09-01T11:25:26.825Z,10
2017-09-01T11:26:27.592Z,10
2017-09-01T11:27:28.211Z,10
2017-09-01T11:28:28.833Z,10
2017-09-01T11:29:29.447Z,10
2017-09-01T11:30:30.066Z,10
2017-09-01T11:31:30.839Z,15
2017-09-01T11:32:31.452Z,15
2017-09-01T11:33:32.070Z,15
2017-09-01T11:34:32.689Z,20
2017-09-01T11:35:33.333Z,20
2017-09-01T11:36:34.102Z,20
2017-09-01T11:37:34.725Z,20
2017-09-01T11:38:35.373Z,20
2017-09-01T11:39:35.989Z,20
2017-09-01T11:40:36.612Z,20
2017-09-01T11:41:37.376Z,20
2017-09-01T11:42:37.999Z,20
2017-09-01T11:43:38.614Z,20
2017-09-01T11:44:39.266Z,20
2017-09-01T11:45:39.882Z,20
2017-09-01T11:46:40.655Z,25
2017-09-01T11:47:41.269Z,30
2017-09-01T11:48:41.887Z,60
2017-09-01T11:49:42.511Z,65
2017-09-01T11:50:43.128Z,75
2017-09-01T11:51:43.895Z,75
2017-09-01T11:52:44.516Z,80
2017-09-01T11:53:45.132Z,50
2017-09-01T11:54:45.750Z,40
2017-09-01T11:55:46.373Z,45
2017-09-01T11:56:47.144Z,50
2017-09-01T11:57:47.765Z,90
2017-09-01T11:58:48.421Z,70
2017-09-01T11:59:49.039Z,90
2017-09-01T12:00:49.655Z,50
2017-09-01T12:01:50.423Z,65
2017-09-01T12:02:51.048Z,70
2017-09-01T12:03:51.669Z,75
2017-09-01T12:04:52.284Z,50
2017-09-01T12:05:52.902Z,45
2017-09-01T12:06:53.672Z,60
2017-09-01T12:07:54.293Z,55
2017-09-01T12:08:54.912Z,60
2017-09-01T12:09:55.539Z,45
2017-09-01T12:10:56.157Z,35
2017-09-01T12:11:56.957Z,55
2017-09-01T12:12:57.584Z,85
2017-09-01T12:13:58.202Z,65
2017-09-01T12:14:58.821Z,55
2017-09-01T12:15:59.446Z,60
2017-09-01T12:17:00.215Z,35
2017-09-01T12:18:00.831Z,30
2017-09-01T12:19:01.458Z,35
2017-09-01T12:20:02.075Z,75
2017-09-01T12:21:02.697Z,25
2017-09-01T12:22:03.476Z,55
2017-09-01T12:23:04.085Z,75
2017-09-01T12:24:04.705Z,80
2017-09-01T12:25:05.325Z,55
2017-09-01T12:26:05.946Z,60
2017-09-01T12:27:06.718Z,45
2017-09-01T12:28:07.336Z,35
2017-09-01T12:29:07.960Z,20
2017-09-01T12:30:08.592Z,20
2017-09-01T12:31:09.231Z,20
2017-09-01T12:32:09.999Z,20
2017-09-01T12:33:10.618Z,20
2017-09-01T12:34:11.235Z,20
2017-09-01T12:35:11.854Z,20
2017-09-01T12:36:12.479Z,20
2017-09-01T12:37:13.248Z,20
2017-09-01T12:38:13.870Z,20
2017-09-01T12:39:14.485Z,20
2017-09-01T12:40:15.102Z,45
2017-09-01T12:41:15.719Z,25
2017-09-01T12:42:16.490Z,25
2017-09-01T12:43:17.113Z,20
2017-09-01T12:44:17.744Z,20
2017-09-01T12:45:18.356Z,20
2017-09-01T12:46:18.975Z,20
2017-09-01T12:47:19.928Z,20
2017-09-01T12:48:20.544Z,20
2017-09-01T12:49:21.163Z,20
2017-09-01T12:50:21.779Z,20
2017-09-01T12:51:22.398Z,20
2017-09-01T12:52:23.164Z,20
2017-09-01T12:53:23.782Z,20
2017-09-01T12:54:24.407Z,20
2017-09-01T12:55:25.055Z,20
2017-09-01T12:56:25.671Z,20
2017-09-01T12:57:26.440Z,20
2017-09-01T12:58:27.059Z,20
2017-09-01T12:59:27.681Z,20
2017-09-01T13:00:28.297Z,20
2017-09-01T13:01:28.915Z,20
2017-09-01T13:02:29.684Z,20
2017-09-01T13:03:30.300Z,20
2017-09-01T13:04:30.919Z,20
2017-09-01T13:05:31.541Z,20
2017-09-01T13:06:32.158Z,25
2017-09-01T13:07:32.959Z,25
2017-09-01T13:08:33.582Z,25
2017-09-01T13:09:34.198Z,25
2017-09-01T13:10:34.822Z,25
2017-09-01T13:11:35.438Z,25
2017-09-01T13:12:36.206Z,25
2017-09-01T13:13:36.824Z,25
2017-09-01T13:14:37.441Z,25
2017-09-01T13:15:38.058Z,25
2017-09-01T13:16:38.678Z,25
2017-09-01T13:17:39.446Z,30
2017-09-01T13:18:40.065Z,30
2017-09-01T13:19:40.685Z,30
2017-09-01T13:20:41.303Z,30
2017-09-01T13:21:41.921Z,30
2017-09-01T13:22:42.689Z,30
2017-09-01T13:23:43.307Z,25
2017-09-01T13:24:43.924Z,25
2017-09-01T13:25:44.543Z,40
2017-09-01T13:26:45.163Z,30
2017-09-01T13:27:45.930Z,40
2017-09-01T13:28:46.557Z,30
2017-09-01T13:29:47.168Z,60
2017-09-01T13:30:47.787Z,60
2017-09-01T13:31:48.405Z,50
2017-09-01T13:32:49.173Z,50
2017-09-01T13:33:49.793Z,95
2017-09-01T13:34:50.415Z,60
2017-09-01T13:35:51.043Z,85
2017-09-01T13:36:51.658Z,50
2017-09-01T13:37:52.432Z,25
2017-09-01T13:38:53.048Z,40
2017-09-01T13:39:53.665Z,50
2017-09-01T13:40:54.287Z,70
2017-09-01T13:41:54.904Z,35
2017-09-01T13:42:55.681Z,75
2017-09-01T13:43:56.302Z,85
2017-09-01T13:44:56.918Z,85
2017-09-01T13:45:57.569Z,75
2017-09-01T13:46:58.219Z,85
2017-09-01T13:47:58.993Z,70
2017-09-01T13:48:59.613Z,35
2017-09-01T13:50:00.230Z,30
2017-09-01T13:51:00.887Z,40
2017-09-01T13:52:01.504Z,30
2017-09-01T13:53:02.278Z,20
2017-09-01T13:54:02.903Z,20
2017-09-01T13:55:03.562Z,30
2017-09-01T13:56:04.177Z,20
2017-09-01T13:57:04.801Z,20
2017-09-01T13:58:05.567Z,25
2017-09-01T13:59:06.186Z,40
2017-09-01T14:00:06.804Z,50
2017-09-01T14:01:07.424Z,50
2017-09-01T14:02:08.082Z,60
2017-09-01T14:03:08.855Z,85
2017-09-01T14:04:09.475Z,70
2017-09-01T14:05:10.094Z,50
2017-09-01T14:06:10.713Z,35
2017-09-01T14:07:11.338Z,80
2017-09-01T14:08:12.105Z,30
2017-09-01T14:09:12.723Z,40
2017-09-01T14:10:13.343Z,30
2017-09-01T14:11:13.963Z,25
2017-09-01T14:12:14.584Z,20
2017-09-01T14:13:15.354Z,25
2017-09-01T14:14:15.978Z,20
2017-09-01T14:15:16.595Z,20
2017-09-01T14:16:17.215Z,25
2017-09-01T14:17:17.868Z,20
2017-09-01T14:18:18.638Z,80
2017-09-01T14:19:19.291Z,75
2017-09-01T14:20:19.912Z,85
2017-09-01T14:21:20.531Z,35
2017-09-01T14:22:21.152Z,80
2017-09-01T14:23:21.921Z,75
2017-09-01T14:24:22.540Z,40
2017-09-01T14:25:23.159Z,30
2017-09-01T14:26:23.777Z,25
2017-09-01T14:27:24.398Z,20
2017-09-01T14:28:25.199Z,20
2017-09-01T14:29:25.818Z,20
2017-09-01T14:30:26.436Z,25
2017-09-01T14:31:27.064Z,30
2017-09-01T14:32:27.709Z,20
2017-09-01T14:33:28.479Z,25
2017-09-01T14:34:29.099Z,25
2017-09-01T14:35:29.723Z,20
2017-09-01T14:36:30.340Z,20
2017-09-01T14:37:30.958Z,25
2017-09-01T14:38:31.729Z,25